Date,TemperatureHighF,TemperatureAvgF,TemperatureLowF,DewpointHighF,DewpointAvgF,DewpointLowF,HumidityHigh,HumidityAvg,HumidityLow,PressureMaxIn,PressureMinIn,WindSpeedMaxMPH,WindSpeedAvgMPH,GustSpeedMaxMPH,PrecipitationSumIn
2013-1-1,33.4,26.5,25.6,30.5,9.1,-99.9,92,75,83,30.06,29.94,2,0,8,0.00
2013-1-2,26.9,19.0,12.6,21.2,4.7,-99.9,91,72,62,30.26,30.04,3,0,9,0.00
2013-1-3,33.1,20.7,4.9,22.3,8.6,-99.9,93,72,63,30.27,30.16,5,-43,16,0.00
2013-1-4,33.2,27.0,27.4,24.4,12.4,-99.9,81,69,65,30.25,30.14,5,2,20,0.00
2013-1-5,37.2,27.6,24.3,26.4,14.9,-99.9,91,72,61,30.40,30.16,4,1,13,0.00
2013-1-6,40.2,34.4,30.7,31.9,21.5,-99.9,86,70,64,30.18,30.00,5,1,13,0.00
2013-1-7,35.2,27.1,15.5,31.4,14.3,-99.9,92,75,70,30.44,30.18,2,0,8,0.01
2013-1-8,46.1,24.2,11.2,31.1,14.8,-99.9,94,80,52,30.41,30.30,5,-43,9,0.00
2013-1-9,45.4,31.8,17.4,42.2,23.4,-99.9,96,85,83,30.48,30.23,5,1,19,0.00
2013-1-10,42.7,33.0,25.0,33.1,22.3,-99.9,94,78,64,30.60,30.33,2,0,8,0.00
2013-1-11,48.1,38.3,34.0,45.0,26.3,-99.9,94,76,59,30.33,29.99,8,1,24,0.06
2013-1-12,59.7,37.7,33.7,54.0,30.4,-99.9,97,89,79,30.11,30.00,2,0,5,0.06
2013-1-13,68.5,49.5,36.8,58.0,38.5,-99.9,98,79,63,30.00,29.85,5,1,15,0.02
2013-1-14,56.7,38.2,33.2,55.9,25.1,-99.9,97,75,65,30.33,29.84,3,0,9,0.04
2013-1-15,34.6,27.2,28.2,28.5,9.1,-99.9,91,71,77,30.36,30.23,3,0,6,0.00
2013-1-17,36.2,33.6,31.7,29.8,28.9,28.0,89,83,75,30.15,30.07,2,0,14,0.00
2013-1-18,35.4,27.1,19.9,28.7,9.0,-99.9,87,58,35,30.49,30.12,5,2,17,0.00
2013-1-19,53.6,43.4,35.3,27.0,11.2,-99.9,61,30,24,30.29,29.83,8,3,18,0.00
2013-1-20,47.9,35.5,24.1,31.4,15.8,-99.9,78,51,36,30.10,29.75,7,3,20,0.00
2013-1-21,28.8,22.1,14.3,20.7,9.4,-99.9,86,68,57,30.09,29.89,5,1,11,0.01
2013-1-22,14.6,10.2,7.4,8.0,-3.7,-99.9,81,64,57,30.31,30.05,4,-42,15,0.01
2013-1-23,16.5,11.6,5.3,11.1,-1.2,-99.9,87,66,53,30.35,30.11,4,-11,14,0.00
2013-1-24,22.2,13.1,2.4,12.1,-1.6,-99.9,88,68,40,30.57,30.09,4,-7,13,0.00
2013-1-25,22.4,14.4,3.2,18.2,4.7,-99.9,88,79,71,30.56,30.06,2,-12,6,0.01
2013-1-26,30.4,22.2,12.6,24.8,11.3,-99.9,89,79,76,30.47,30.11,3,0,10,0.01
2013-1-27,34.4,21.9,7.4,25.3,12.4,-99.9,92,76,53,30.58,30.36,2,-16,4,0.00
2013-1-28,50.3,39.6,29.5,49.2,31.5,-99.9,96,86,78,30.37,30.02,5,2,19,0.00
2013-1-29,66.6,48.2,43.4,55.6,33.9,-99.9,98,78,65,30.04,29.79,6,1,15,0.00
2013-1-30,71.1,55.0,45.8,57.1,45.5,-99.9,96,80,58,29.79,29.19,8,2,26,0.00
2013-1-31,50.4,27.8,24.5,47.6,13.4,-99.9,92,69,61,29.84,29.16,8,4,22,0.07